Time;durP1;ratioP1;P1;durP2;ratioP2;P2;SDS_P1;SDS_P2;PMS_P1;PMS_P2;Temp;Humidity;BMP_temperature;BMP_pressure;BME280_temperature;BME280_humidity;BME280_pressure;Samples;Min_cycle;Max_cycle;Signal;HPM_P1;HPM_P2
2021/04/26 00:01:44;;;;;;;26.95;13.43;;;;;;;1.07;61.20;96875.69;1712978;81;21325;-77
2021/04/26 00:04:09;;;;;;;19.62;12.33;;;;;;;1.08;61.24;96868.83;1747960;80;21117;-77
2021/04/26 00:06:35;;;;;;;27.42;13.40;;;;;;;1.07;61.25;96876.16;1753318;80;21488;-79
2021/04/26 00:09:03;;;;;;;24.65;13.50;;;;;;;1.07;61.00;96875.69;1739199;80;21508;-79
2021/04/26 00:11:29;;;;;;;21.17;13.08;;;;;;;1.07;61.02;96882.55;1749837;80;21184;-79
2021/04/26 00:13:55;;;;;;;23.32;11.78;;;;;;;1.07;61.02;96879.53;1755153;80;21181;-79
2021/04/26 00:16:21;;;;;;;23.15;12.33;;;;;;;1.09;61.21;96880.23;1738315;80;21153;-79
2021/04/26 00:18:48;;;;;;;19.90;13.20;;;;;;;1.07;61.08;96883.37;1748077;80;21169;-78
2021/04/26 00:21:14;;;;;;;22.15;13.03;;;;;;;1.08;61.08;96885.47;1752295;80;21105;-79
2021/04/26 00:23:41;;;;;;;20.45;12.78;;;;;;;1.06;61.58;96886.86;1750689;79;21586;-79
2021/04/26 00:26:07;;;;;;;21.02;13.50;;;;;;;1.04;61.53;96885.34;1760019;80;21101;-79
2021/04/26 00:28:33;;;;;;;22.50;14.15;;;;;;;1.02;61.60;96885.92;1748186;80;21386;-79
2021/04/26 00:31:02;;;;;;;27.45;13.90;;;;;;;1.01;61.43;96883.83;1747770;80;21245;-79
2021/04/26 00:33:27;;;;;;;25.72;14.78;;;;;;;1.00;61.28;96888.59;1744202;80;21122;-79
2021/04/26 00:35:53;;;;;;;23.27;13.93;;;;;;;0.99;61.53;96883.59;1748098;80;21837;-79
2021/04/26 00:38:19;;;;;;;29.32;15.38;;;;;;;0.97;61.52;96877.27;1748694;80;21163;-78
2021/04/26 00:40:44;;;;;;;27.95;15.58;;;;;;;0.96;61.54;96882.50;1754425;80;21554;-77
2021/04/26 00:43:11;;;;;;;29.37;17.10;;;;;;;0.95;61.88;96882.16;1760085;80;21103;-78
2021/04/26 00:45:37;;;;;;;29.90;16.40;;;;;;;0.93;62.10;96890.41;1742288;80;21123;-78
2021/04/26 00:48:03;;;;;;;30.62;17.57;;;;;;;0.92;62.25;96892.61;1752478;80;21341;-77
2021/04/26 00:50:30;;;;;;;30.48;18.27;;;;;;;0.92;62.35;96896.45;1753091;80;21101;-78
2021/04/26 00:52:58;;;;;;;29.92;18.02;;;;;;;0.88;62.55;96892.02;1750124;80;21287;-77
2021/04/26 00:55:27;;;;;;;32.63;17.40;;;;;;;0.86;62.56;96892.59;1755044;80;21153;-77
2021/04/26 00:57:53;;;;;;;32.60;18.37;;;;;;;0.84;62.48;96885.03;1756507;80;21290;-77
2021/04/26 01:00:20;;;;;;;30.50;17.87;;;;;;;0.84;62.61;96893.17;1751879;80;21102;-78
2021/04/26 01:02:46;;;;;;;29.00;16.65;;;;;;;0.84;62.67;96897.01;1744656;80;21125;-77
2021/04/26 01:05:17;;;;;;;28.92;17.07;;;;;;;0.82;62.74;96894.56;1749346;80;21349;-77
2021/04/26 01:07:43;;;;;;;30.75;16.97;;;;;;;0.80;62.85;96890.45;1757154;80;21534;-77
2021/04/26 01:10:11;;;;;;;22.98;15.30;;;;;;;0.79;62.74;96895.22;1747012;80;21322;-78
2021/04/26 01:13:14;;;;;;;25.35;14.73;;;;;;;0.77;62.87;96888.12;1761359;79;21129;-77
2021/04/26 01:16:14;;;;;;;24.25;16.02;;;;;;;0.76;62.79;96890.33;1742046;80;21118;-78
2021/04/26 01:19:19;;;;;;;22.90;13.08;;;;;;;0.74;62.76;96885.78;1724937;80;21148;-77
2021/04/26 01:22:21;;;;;;;28.85;15.00;;;;;;;0.73;62.89;96884.16;1760443;80;21060;-77
2021/04/26 01:25:05;;;;;;;18.42;10.05;;;;;;;0.69;62.85;96884.02;1748978;80;21141;-78
2021/04/26 01:28:00;;;;;;;25.52;13.38;;;;;;;0.67;62.86;96875.65;1750535;80;21631;-77
2021/04/26 01:30:35;;;;;;;22.55;13.95;;;;;;;0.63;63.02;96874.20;1719298;80;21162;-78
2021/04/26 01:33:20;;;;;;;21.75;12.68;;;;;;;0.60;62.96;96867.11;1713272;81;21133;-77
2021/04/26 01:35:46;;;;;;;21.10;12.05;;;;;;;0.59;62.96;96869.78;1749207;80;21401;-77
2021/04/26 01:38:17;;;;;;;23.32;12.35;;;;;;;0.57;63.25;96862.68;1739067;80;21349;-77
2021/04/26 01:40:44;;;;;;;20.72;12.23;;;;;;;0.55;63.31;96862.80;1750836;80;21134;-77
2021/04/26 01:43:10;;;;;;;22.07;12.35;;;;;;;0.53;63.32;96863.36;1758621;80;21118;-77
2021/04/26 01:45:37;;;;;;;23.95;12.20;;;;;;;0.52;63.42;96859.18;1754228;80;21178;-78
2021/04/26 01:48:04;;;;;;;19.27;11.55;;;;;;;0.49;63.44;96856.84;1753483;79;21138;-78
2021/04/26 01:50:31;;;;;;;21.77;12.58;;;;;;;0.49;63.47;96863.70;1744683;80;21105;-78
2021/04/26 01:52:57;;;;;;;20.95;12.30;;;;;;;0.49;63.43;96857.30;1753908;80;21144;-77
2021/04/26 01:55:23;;;;;;;24.23;12.98;;;;;;;0.50;63.21;96860.22;1751851;80;21094;-78
2021/04/26 01:57:49;;;;;;;25.80;13.58;;;;;;;0.50;63.29;96853.36;1754638;80;21142;-77
2021/04/26 02:00:30;;;;;;;25.70;14.23;;;;;;;0.49;63.25;96855.56;1749975;80;21113;-77
2021/04/26 02:02:57;;;;;;;22.40;13.43;;;;;;;0.49;63.54;96854.28;1754638;80;21126;-77
2021/04/26 02:05:24;;;;;;;24.02;12.50;;;;;;;0.48;63.49;96851.34;1730690;80;21213;-77
2021/04/26 02:07:51;;;;;;;25.27;14.45;;;;;;;0.47;63.63;96848.90;1749804;80;21127;-78
2021/04/26 02:10:20;;;;;;;25.27;13.85;;;;;;;0.48;63.53;96856.45;1755865;80;21241;-78
2021/04/26 02:12:47;;;;;;;22.20;12.93;;;;;;;0.49;63.82;96853.47;1752820;80;21606;-78
2021/04/26 02:15:16;;;;;;;22.30;13.18;;;;;;;0.50;63.79;96849.98;1753268;80;21251;-78
2021/04/26 02:17:42;;;;;;;22.65;15.10;;;;;;;0.48;63.77;96850.53;1757858;80;21134;-77
2021/04/26 02:20:11;;;;;;;22.98;13.65;;;;;;;0.49;63.73;96850.45;1752232;80;21302;-77
2021/04/26 02:22:37;;;;;;;24.72;13.98;;;;;;;0.49;63.89;96853.01;1756364;80;21471;-77
2021/04/26 02:25:05;;;;;;;19.67;11.65;;;;;;;0.50;63.91;96853.82;1751014;80;21138;-77
2021/04/26 02:27:31;;;;;;;18.65;11.35;;;;;;;0.48;64.05;96851.34;1756053;80;21147;-80
2021/04/26 02:29:57;;;;;;;18.27;12.25;;;;;;;0.46;63.98;96850.64;1757517;80;21238;-80
2021/04/26 02:32:31;;;;;;;18.45;11.73;;;;;;;0.47;63.84;96845.87;1749379;80;21117;-80
2021/04/26 02:34:59;;;;;;;22.07;12.15;;;;;;;0.46;63.85;96842.16;1750374;80;21107;-81
2021/04/26 02:37:32;;;;;;;25.68;12.70;;;;;;;0.46;63.83;96840.41;1755950;80;21348;-81
2021/04/26 02:40:08;;;;;;;21.05;11.28;;;;;;;0.46;63.82;96843.44;1746381;79;21164;-80
2021/04/26 02:42:40;;;;;;;21.45;11.28;;;;;;;0.48;63.91;96856.45;1722298;80;21141;-81
2021/04/26 02:45:08;;;;;;;22.30;11.50;;;;;;;0.50;63.89;96845.69;1749273;80;21058;-80
2021/04/26 02:47:36;;;;;;;22.58;12.30;;;;;;;0.50;63.92;96848.70;1746855;80;21314;-80
2021/04/26 02:50:05;;;;;;;22.25;11.85;;;;;;;0.48;63.99;96847.52;1745994;80;21102;-80
2021/04/26 02:52:31;;;;;;;20.23;10.98;;;;;;;0.47;64.27;96845.06;1748014;80;21119;-81
2021/04/26 02:54:58;;;;;;;25.00;12.37;;;;;;;0.45;64.38;96844.36;1747911;80;21406;-80
2021/04/26 02:57:24;;;;;;;20.72;11.15;;;;;;;0.44;64.30;96851.67;1747149;80;21055;-80
2021/04/26 02:59:50;;;;;;;18.30;10.82;;;;;;;0.42;64.37;96853.06;1748644;80;21091;-78
2021/04/26 03:02:16;;;;;;;18.77;11.00;;;;;;;0.42;64.34;96849.23;1759714;79;21123;-78
2021/04/26 03:04:42;;;;;;;21.87;11.08;;;;;;;0.43;64.46;96847.48;1695692;81;21143;-78
2021/04/26 03:07:08;;;;;;;19.10;11.75;;;;;;;0.42;64.54;96856.09;1751318;80;21097;-79
2021/04/26 03:09:34;;;;;;;20.35;11.63;;;;;;;0.41;64.50;96853.17;1740888;80;21126;-79
2021/04/26 03:12:00;;;;;;;23.87;13.75;;;;;;;0.41;64.66;96855.73;1728199;80;21059;-78
2021/04/26 03:14:28;;;;;;;24.70;14.70;;;;;;;0.42;64.51;96853.53;1754799;80;21107;-80
2021/04/26 03:16:54;;;;;;;24.30;14.80;;;;;;;0.41;64.40;96854.45;1748031;80;22563;-78
2021/04/26 03:19:20;;;;;;;24.55;14.18;;;;;;;0.42;64.73;96854.80;1747907;80;21145;-79
2021/04/26 03:21:47;;;;;;;21.50;13.93;;;;;;;0.43;64.95;96853.88;1737350;80;21146;-82
2021/04/26 03:24:15;;;;;;;19.77;12.43;;;;;;;0.41;65.00;96860.84;1741892;80;21181;-79
2021/04/26 03:26:44;;;;;;;20.77;11.57;;;;;;;0.41;65.08;96868.52;1749582;79;21455;-79
2021/04/26 03:29:16;;;;;;;20.32;11.60;;;;;;;0.41;65.26;96867.23;1727893;80;21224;-79
2021/04/26 03:31:42;;;;;;;19.00;10.82;;;;;;;0.42;65.15;96861.20;1732521;80;21318;-79
2021/04/26 03:34:08;;;;;;;14.90;10.05;;;;;;;0.41;65.36;96865.50;1747069;80;21125;-79
2021/04/26 03:36:36;;;;;;;16.35;10.10;;;;;;;0.40;65.44;96865.61;1749284;80;21116;-78
2021/04/26 03:39:04;;;;;;;16.12;10.38;;;;;;;0.39;65.66;96869.91;1756172;80;21241;-78
2021/04/26 03:41:30;;;;;;;17.15;10.30;;;;;;;0.39;65.86;96871.64;1748329;80;21668;-78
2021/04/26 03:43:56;;;;;;;16.90;11.18;;;;;;;0.37;66.31;96871.75;1718282;80;21101;-78
2021/04/26 03:46:22;;;;;;;16.97;10.30;;;;;;;0.36;66.78;96875.70;1751289;80;21086;-79
2021/04/26 03:48:48;;;;;;;15.00;9.70;;;;;;;0.35;66.24;96876.63;1752545;80;21125;-78
2021/04/26 03:51:14;;;;;;;13.70;9.15;;;;;;;0.38;66.31;96875.13;1752781;80;21086;-78
2021/04/26 03:53:41;;;;;;;16.23;9.93;;;;;;;0.39;66.41;96886.52;1756854;80;21138;-80
2021/04/26 03:56:07;;;;;;;16.25;10.20;;;;;;;0.40;66.35;96879.20;1744764;80;21153;-80
2021/04/26 03:58:33;;;;;;;18.15;9.75;;;;;;;0.40;66.26;96879.20;1742946;80;21145;-79
2021/04/26 04:00:59;;;;;;;14.85;9.70;;;;;;;0.38;66.14;96886.63;1752203;81;21345;-79
2021/04/26 04:03:25;;;;;;;14.07;9.13;;;;;;;0.39;66.18;96880.12;1753600;80;21279;-81
2021/04/26 04:05:51;;;;;;;14.33;8.63;;;;;;;0.40;66.23;96883.50;1741874;80;21096;-82
2021/04/26 04:08:21;;;;;;;14.65;9.38;;;;;;;0.41;66.12;96882.58;1753121;79;21129;-82
2021/04/26 04:10:47;;;;;;;15.83;9.43;;;;;;;0.43;65.96;96882.00;1752322;80;21429;-81
2021/04/26 04:13:13;;;;;;;14.95;9.73;;;;;;;0.46;65.79;96886.89;1754678;80;21138;-81
2021/04/26 04:15:39;;;;;;;15.63;9.10;;;;;;;0.50;66.01;96882.77;1747790;80;21378;-79
2021/04/26 04:18:06;;;;;;;15.48;8.53;;;;;;;0.53;66.09;96890.22;1749699;80;21142;-79
2021/04/26 04:20:32;;;;;;;12.73;8.43;;;;;;;0.55;65.97;96897.31;1745606;80;21153;-80
2021/04/26 04:22:58;;;;;;;13.90;8.78;;;;;;;0.62;66.16;96901.98;1746352;79;21160;-79
2021/04/26 04:25:24;;;;;;;13.60;9.03;;;;;;;0.68;66.06;96901.11;1737957;80;21400;-79
2021/04/26 04:27:51;;;;;;;15.50;9.70;;;;;;;0.73;66.19;96902.88;1740035;80;21169;-79
2021/04/26 04:30:17;;;;;;;10.48;7.70;;;;;;;0.82;66.50;96898.86;1760549;80;21129;-79
2021/04/26 04:32:43;;;;;;;15.88;8.13;;;;;;;0.90;66.24;96901.67;1749320;80;21105;-79
2021/04/26 04:35:10;;;;;;;13.80;10.15;;;;;;;1.01;66.22;96908.59;1758007;80;21125;-79
2021/04/26 04:37:36;;;;;;;13.60;8.65;;;;;;;1.08;66.07;96908.03;1753453;80;21137;-79
2021/04/26 04:40:05;;;;;;;14.95;9.58;;;;;;;1.18;66.08;96908.20;1753352;80;21142;-79
2021/04/26 04:42:31;;;;;;;14.55;8.98;;;;;;;1.30;66.79;96909.03;1752728;79;21117;-79
2021/04/26 04:44:57;;;;;;;13.98;10.45;;;;;;;1.39;65.78;96904.54;1734584;80;21137;-79
2021/04/26 04:47:23;;;;;;;16.30;9.50;;;;;;;1.45;65.25;96901.52;1757099;80;21184;-79
2021/04/26 04:49:49;;;;;;;16.48;10.15;;;;;;;1.48;64.98;96903.88;1726981;81;21158;-79
2021/04/26 04:52:17;;;;;;;16.12;11.53;;;;;;;1.48;64.82;96887.23;1745367;80;21376;-79
2021/04/26 04:54:43;;;;;;;17.87;9.80;;;;;;;1.57;64.64;96895.50;1750021;80;21100;-79
2021/04/26 04:57:09;;;;;;;14.30;9.65;;;;;;;1.59;64.25;96905.63;1751981;80;21256;-79
2021/04/26 04:59:35;;;;;;;13.40;10.20;;;;;;;1.60;63.98;96901.67;1751499;80;21145;-79
2021/04/26 05:02:01;;;;;;;15.40;9.83;;;;;;;1.64;63.75;96900.54;1743477;80;21079;-79
2021/04/26 05:04:27;;;;;;;14.10;8.83;;;;;;;1.69;63.83;96902.75;1755046;80;21349;-79
2021/04/26 05:06:54;;;;;;;13.08;9.40;;;;;;;1.75;63.95;96901.00;1728195;80;21129;-82
2021/04/26 05:09:20;;;;;;;15.90;10.38;;;;;;;1.76;63.41;96898.32;1746670;80;21131;-82
2021/04/26 05:11:47;;;;;;;15.50;9.63;;;;;;;1.84;63.32;96896.48;1749689;80;21143;-80
2021/04/26 05:14:13;;;;;;;16.17;9.65;;;;;;;1.90;62.84;96895.20;1726114;80;21138;-80
2021/04/26 05:16:39;;;;;;;13.98;8.48;;;;;;;1.95;62.70;96891.37;1742909;80;21118;-80
2021/04/26 05:19:05;;;;;;;13.80;8.38;;;;;;;2.01;63.19;96893.93;1736151;80;21459;-79
2021/04/26 05:21:31;;;;;;;13.15;9.05;;;;;;;2.09;63.12;96896.72;1752361;80;21152;-80
2021/04/26 05:23:57;;;;;;;15.15;9.13;;;;;;;2.21;63.17;96893.69;1749809;80;21079;-79
2021/04/26 05:26:26;;;;;;;10.53;7.33;;;;;;;2.28;62.46;96890.55;1745396;80;21180;-79
2021/04/26 05:28:52;;;;;;;11.93;9.80;;;;;;;2.28;61.75;96880.30;1726930;81;21226;-79
2021/04/26 05:31:19;;;;;;;12.85;8.48;;;;;;;2.32;61.86;96881.69;1743700;79;21174;-78
2021/04/26 05:33:45;;;;;;;13.00;7.72;;;;;;;2.40;61.85;96879.80;1723408;80;21147;-81
2021/04/26 05:36:11;;;;;;;13.03;7.80;;;;;;;2.47;62.01;96877.13;1757187;80;21141;-81
2021/04/26 05:38:38;;;;;;;11.55;7.53;;;;;;;2.58;61.80;96880.11;1753472;79;21407;-82
2021/04/26 05:41:04;;;;;;;12.23;7.58;;;;;;;2.70;61.16;96872.74;1745463;80;21114;-81
2021/04/26 05:43:32;;;;;;;11.88;7.15;;;;;;;2.77;60.81;96871.34;1749928;80;21151;-81
2021/04/26 05:45:59;;;;;;;10.23;7.30;;;;;;;2.86;60.63;96870.59;1755824;79;21134;-81
2021/04/26 05:48:25;;;;;;;11.22;7.40;;;;;;;2.92;60.26;96873.12;1747456;80;21120;-82
2021/04/26 05:50:53;;;;;;;10.03;6.80;;;;;;;3.00;59.75;96873.34;1744651;80;21111;-82
2021/04/26 05:53:21;;;;;;;8.70;6.05;;;;;;;3.10;59.34;96871.69;1746672;80;21071;-80
2021/04/26 05:55:47;;;;;;;10.23;6.10;;;;;;;3.22;59.21;96871.95;1747149;80;21126;-78
2021/04/26 05:58:13;;;;;;;9.35;6.45;;;;;;;3.33;58.92;96864.67;1752160;80;21154;-82
2021/04/26 06:00:39;;;;;;;9.38;6.92;;;;;;;3.41;58.43;96867.89;1741822;80;21137;-82
2021/04/26 06:03:06;;;;;;;10.40;6.15;;;;;;;3.53;57.99;96868.17;1742423;80;21244;-81
2021/04/26 06:05:33;;;;;;;12.53;8.53;;;;;;;3.69;57.86;96870.30;1747136;80;21146;-80
2021/04/26 06:07:59;;;;;;;13.68;8.03;;;;;;;3.80;57.38;96866.38;1751494;80;21559;-78
2021/04/26 06:10:26;;;;;;;13.03;8.50;;;;;;;3.88;57.31;96871.67;1749944;80;21286;-79
2021/04/26 06:12:53;;;;;;;14.58;9.30;;;;;;;4.03;56.99;96876.02;1751885;80;21323;-81
2021/04/26 06:15:23;;;;;;;16.95;10.13;;;;;;;4.12;56.79;96869.63;1750529;80;21092;-80
2021/04/26 06:17:49;;;;;;;16.23;9.83;;;;;;;4.23;56.29;96879.02;1708648;82;21090;-79
2021/04/26 06:20:15;;;;;;;16.75;11.40;;;;;;;4.28;56.63;96868.34;1681598;83;21179;-82
2021/04/26 06:22:41;;;;;;;19.35;12.28;;;;;;;4.36;56.32;96874.44;1752859;80;21316;-79
2021/04/26 06:25:08;;;;;;;12.15;7.42;;;;;;;4.44;56.39;96874.61;1752907;80;21100;-79
2021/04/26 06:27:36;;;;;;;7.70;5.67;;;;;;;4.52;55.28;96874.75;1750769;80;21476;-79
2021/04/26 06:30:04;;;;;;;8.75;5.12;;;;;;;4.65;55.10;96872.41;1755197;80;21154;-82
2021/04/26 06:32:30;;;;;;;13.60;8.50;;;;;;;4.77;54.19;96862.34;1736067;80;21496;-78
2021/04/26 06:34:57;;;;;;;12.28;8.73;;;;;;;4.88;53.42;96869.11;1755334;80;21210;-78
2021/04/26 06:37:24;;;;;;;9.85;6.03;;;;;;;4.94;53.95;96871.17;1724363;81;21515;-80
2021/04/26 06:39:50;;;;;;;11.25;6.00;;;;;;;5.00;53.94;96866.76;1689382;82;21273;-79
2021/04/26 06:42:17;;;;;;;10.40;6.40;;;;;;;5.11;53.42;96866.16;1689360;83;21197;-79
2021/04/26 06:44:43;;;;;;;9.28;6.08;;;;;;;5.18;53.29;96865.12;1729819;81;21162;-77
2021/04/26 06:47:11;;;;;;;7.78;5.37;;;;;;;5.25;53.52;96870.56;1733042;80;21114;-80
2021/04/26 06:49:43;;;;;;;6.03;3.22;;;;;;;5.26;52.45;96871.72;1739656;80;21071;-78
2021/04/26 06:52:09;;;;;;;6.05;3.27;;;;;;;5.26;49.42;96869.62;1717120;81;21080;-80
2021/04/26 06:54:35;;;;;;;6.10;4.10;;;;;;;5.24;49.74;96868.94;1754343;80;21170;-78
2021/04/26 06:57:01;;;;;;;5.80;3.98;;;;;;;5.31;50.71;96866.95;1740659;80;21446;-77
2021/04/26 06:59:27;;;;;;;7.47;4.37;;;;;;;5.41;50.79;96861.80;1700779;82;21280;-79
2021/04/26 07:01:53;;;;;;;6.30;3.52;;;;;;;5.53;50.06;96863.28;1690675;83;21264;-78
2021/04/26 07:04:19;;;;;;;8.58;4.22;;;;;;;5.52;49.20;96860.82;1691491;82;21314;-78
2021/04/26 07:06:45;;;;;;;6.78;4.20;;;;;;;5.64;50.24;96859.72;1742092;80;21173;-77
2021/04/26 07:09:14;;;;;;;7.20;4.28;;;;;;;5.78;50.32;96864.44;1752946;80;21090;-78
2021/04/26 07:11:41;;;;;;;5.17;2.72;;;;;;;5.84;49.14;96858.70;1750998;80;21417;-80
2021/04/26 07:14:07;;;;;;;5.55;3.62;;;;;;;5.91;49.00;96864.16;1739078;81;21114;-78
2021/04/26 07:16:33;;;;;;;6.60;3.42;;;;;;;5.89;47.85;96862.98;1673559;84;21178;-80
2021/04/26 07:19:00;;;;;;;6.03;2.83;;;;;;;5.93;48.27;96860.97;1696319;83;21523;-79
2021/04/26 07:21:26;;;;;;;6.33;3.35;;;;;;;5.99;46.69;96862.49;1762827;80;21617;-78
2021/04/26 07:23:52;;;;;;;6.12;3.50;;;;;;;5.92;46.94;96860.16;1758590;80;21154;-80
2021/04/26 07:26:19;;;;;;;6.80;4.00;;;;;;;5.92;46.61;96866.60;1690296;84;21138;-80
2021/04/26 07:28:46;;;;;;;4.70;2.85;;;;;;;5.89;47.04;96865.56;1759112;80;21138;-79
2021/04/26 07:31:12;;;;;;;7.12;4.08;;;;;;;5.95;47.27;96866.79;1671336;84;21134;-79
2021/04/26 07:33:45;;;;;;;6.60;4.10;;;;;;;5.88;47.33;96862.66;1759928;80;21130;-78
2021/04/26 07:36:12;;;;;;;6.67;4.92;;;;;;;5.88;46.99;96863.95;1761409;80;21136;-79
2021/04/26 07:38:38;;;;;;;7.58;4.40;;;;;;;5.88;46.92;96860.08;1762896;80;21115;-78
2021/04/26 07:41:04;;;;;;;6.87;4.25;;;;;;;5.90;47.29;96862.55;1705243;82;21198;-80
2021/04/26 07:43:30;;;;;;;7.83;4.60;;;;;;;5.97;47.83;96857.95;1753856;80;21431;-77
2021/04/26 07:45:56;;;;;;;7.50;4.67;;;;;;;6.04;46.99;96860.80;1756509;80;21308;-78
2021/04/26 07:48:23;;;;;;;5.10;3.33;;;;;;;6.07;47.31;96856.64;1749846;80;21174;-77
2021/04/26 07:50:49;;;;;;;6.60;3.75;;;;;;;6.18;46.69;96857.76;1757506;80;21091;-80
2021/04/26 07:53:16;;;;;;;6.42;3.67;;;;;;;6.25;46.84;96854.93;1762464;79;21281;-80
2021/04/26 07:55:42;;;;;;;5.83;3.02;;;;;;;6.26;45.61;96860.90;1756168;80;21331;-80
2021/04/26 07:58:08;;;;;;;7.72;4.42;;;;;;;6.28;46.58;96861.56;1760053;80;21135;-78
2021/04/26 08:00:34;;;;;;;7.15;4.15;;;;;;;6.28;45.25;96861.56;1755330;80;21277;-79
2021/04/26 08:03:01;;;;;;;6.85;4.45;;;;;;;6.26;46.31;96864.77;1762672;80;21119;-78
2021/04/26 08:05:28;;;;;;;7.22;4.20;;;;;;;6.31;46.21;96860.80;1744208;80;21175;-80
2021/04/26 08:07:54;;;;;;;5.80;4.15;;;;;;;6.43;46.49;96853.68;1757996;80;21252;-79
2021/04/26 08:10:21;;;;;;;6.87;4.30;;;;;;;6.60;45.92;96856.77;1756676;80;21126;-78
2021/04/26 08:12:47;;;;;;;6.35;4.40;;;;;;;6.76;46.23;96850.16;1751215;79;21279;-80
2021/04/26 08:15:14;;;;;;;4.78;3.50;;;;;;;6.87;44.50;96853.83;1762670;80;21141;-78
2021/04/26 08:17:40;;;;;;;7.08;4.30;;;;;;;6.83;46.40;96852.47;1737427;80;21311;-78
2021/04/26 08:20:07;;;;;;;5.95;4.00;;;;;;;6.70;46.07;96858.02;1742976;80;21253;-80
2021/04/26 08:22:33;;;;;;;7.55;3.92;;;;;;;6.62;46.25;96864.38;1745900;80;21508;-80
2021/04/26 08:24:59;;;;;;;6.15;3.40;;;;;;;6.71;45.43;96851.89;1759954;80;21129;-78
2021/04/26 08:27:25;;;;;;;5.50;3.08;;;;;;;6.85;45.58;96857.04;1724777;81;21336;-78
2021/04/26 08:29:51;;;;;;;6.65;3.85;;;;;;;6.99;44.22;96857.80;1721532;81;21228;-77
2021/04/26 08:32:18;;;;;;;5.40;3.33;;;;;;;7.03;44.72;96851.88;1747579;80;21109;-79
2021/04/26 08:34:44;;;;;;;5.72;3.95;;;;;;;7.03;44.45;96859.63;1746105;80;21471;-78
2021/04/26 08:37:10;;;;;;;7.00;3.10;;;;;;;7.07;44.52;96855.30;1770939;80;21166;-79
2021/04/26 08:39:36;;;;;;;7.78;4.12;;;;;;;6.78;44.29;96824.98;1755392;80;21134;-77
2021/04/26 08:42:04;;;;;;;7.25;4.08;;;;;;;6.84;44.71;96843.80;1763243;80;21113;-78
2021/04/26 08:44:31;;;;;;;5.55;3.58;;;;;;;6.92;46.04;96848.54;1758266;80;21175;-78
2021/04/26 08:46:57;;;;;;;6.80;4.33;;;;;;;6.97;44.60;96851.97;1753133;80;21114;-79
2021/04/26 08:49:24;;;;;;;5.15;3.37;;;;;;;6.71;44.62;96855.77;1749946;80;22170;-78
2021/04/26 08:51:50;;;;;;;7.22;4.20;;;;;;;6.67;43.57;96857.47;1759758;80;21735;-77
2021/04/26 08:54:17;;;;;;;7.33;3.62;;;;;;;6.72;44.49;96855.29;1750216;80;21186;-78
2021/04/26 08:56:44;;;;;;;6.58;4.20;;;;;;;6.58;44.44;96850.95;1759529;80;21354;-77
2021/04/26 08:59:10;;;;;;;5.87;4.00;;;;;;;6.51;45.54;96851.20;1753507;80;21159;-78
2021/04/26 09:01:36;;;;;;;4.62;2.77;;;;;;;6.69;45.08;96850.42;1755628;80;21275;-78
2021/04/26 09:04:11;;;;;;;5.78;3.70;;;;;;;6.91;43.76;96849.50;1762264;80;21138;-78
2021/04/26 09:07:02;;;;;;;7.83;4.40;;;;;;;6.83;43.43;96840.40;1765399;80;21123;-80
2021/04/26 09:09:47;;;;;;;6.28;4.05;;;;;;;6.69;45.22;96852.52;1737405;81;21252;-78
2021/04/26 09:12:16;;;;;;;6.12;3.72;;;;;;;6.62;44.40;96849.69;1772106;80;21118;-78
2021/04/26 09:14:47;;;;;;;7.50;3.85;;;;;;;6.54;43.48;96851.39;1767853;80;22017;-78
2021/04/26 09:17:42;;;;;;;6.83;3.37;;;;;;;6.42;43.60;96848.19;1756309;80;21121;-77
2021/04/26 09:20:20;;;;;;;5.72;3.90;;;;;;;6.63;44.01;96849.21;1768778;80;21649;-78
2021/04/26 09:22:59;;;;;;;5.35;3.60;;;;;;;7.01;44.42;96844.27;1742489;80;21362;-79
2021/04/26 09:25:35;;;;;;;4.55;3.15;;;;;;;7.18;44.62;96842.64;1756213;80;21776;-80
2021/04/26 09:28:19;;;;;;;6.62;4.75;;;;;;;7.01;43.08;96844.27;1762756;80;21094;-77
2021/04/26 09:30:56;;;;;;;5.20;3.67;;;;;;;6.79;43.13;96844.69;1744411;79;21178;-77
2021/04/26 09:33:35;;;;;;;6.42;4.05;;;;;;;6.62;42.54;96838.07;1745793;80;21133;-78
2021/04/26 09:36:14;;;;;;;8.93;5.00;;;;;;;6.76;43.49;96840.64;1769794;80;21167;-77
2021/04/26 09:38:53;;;;;;;6.12;3.70;;;;;;;6.81;44.65;96842.29;1763055;80;21193;-78
2021/04/26 09:41:26;;;;;;;5.40;3.77;;;;;;;6.86;43.74;96836.22;1756744;80;21340;-78
2021/04/26 09:44:09;;;;;;;6.10;3.85;;;;;;;6.88;43.76;96839.95;1752407;80;21138;-77
2021/04/26 09:46:51;;;;;;;7.65;4.65;;;;;;;6.94;44.32;96835.47;1750592;80;21254;-78
2021/04/26 09:49:23;;;;;;;7.08;4.00;;;;;;;7.12;44.71;96838.05;1765816;80;21373;-81
2021/04/26 09:51:53;;;;;;;8.08;4.42;;;;;;;7.33;44.98;96824.34;1764401;80;21134;-78
2021/04/26 09:54:37;;;;;;;7.80;3.92;;;;;;;7.48;44.69;96831.89;1763214;80;21376;-78
2021/04/26 09:57:05;;;;;;;5.25;3.40;;;;;;;7.81;44.92;96826.92;1761125;79;21094;-78
2021/04/26 09:59:31;;;;;;;5.78;3.37;;;;;;;8.20;45.18;96829.03;1760218;80;21153;-79
2021/04/26 10:01:59;;;;;;;6.15;3.10;;;;;;;8.36;43.52;96820.06;1755086;80;21110;-78
2021/04/26 10:04:26;;;;;;;5.47;3.37;;;;;;;8.46;42.69;96819.91;1741458;80;21154;-79
2021/04/26 10:06:52;;;;;;;8.23;4.33;;;;;;;8.59;41.18;96818.50;1742903;80;21165;-81
2021/04/26 10:09:19;;;;;;;4.53;3.42;;;;;;;8.72;42.82;96810.27;1747687;80;21169;-78
2021/04/26 10:11:45;;;;;;;5.03;2.85;;;;;;;8.92;41.63;96806.89;1732075;80;21140;-78
2021/04/26 10:14:14;;;;;;;5.78;3.22;;;;;;;9.17;42.03;96803.84;1759407;80;21484;-81
2021/04/26 10:16:57;;;;;;;5.30;2.80;;;;;;;9.29;41.54;96805.95;1742843;80;21276;-81
2021/04/26 10:19:36;;;;;;;4.53;3.00;;;;;;;9.42;40.20;96802.02;1769886;80;21122;-77
2021/04/26 10:22:05;;;;;;;5.47;3.27;;;;;;;9.52;39.95;96810.45;1752761;80;21186;-82
2021/04/26 10:24:32;;;;;;;6.53;3.55;;;;;;;9.63;39.16;96801.84;1729353;80;21430;-81
2021/04/26 10:27:06;;;;;;;5.00;3.33;;;;;;;9.65;39.38;96796.49;1727500;81;21507;-78
2021/04/26 10:29:34;;;;;;;6.15;3.35;;;;;;;9.65;39.66;96780.11;1747148;80;21153;-81
2021/04/26 10:32:15;;;;;;;5.75;3.67;;;;;;;9.86;37.87;96790.75;1740602;80;21110;-78
2021/04/26 10:34:50;;;;;;;5.90;2.95;;;;;;;9.67;37.44;96791.13;1756586;80;21971;-79
2021/04/26 10:37:25;;;;;;;5.25;2.35;;;;;;;9.44;39.14;96782.75;1752397;80;21150;-81
2021/04/26 10:40:12;;;;;;;3.92;3.10;;;;;;;9.12;39.43;96786.19;1746521;81;21192;-78
2021/04/26 10:42:52;;;;;;;5.15;3.17;;;;;;;8.73;39.00;96788.58;1744952;80;21157;-78
2021/04/26 10:45:27;;;;;;;5.62;3.15;;;;;;;8.57;38.29;96781.59;1754544;80;21158;-78
2021/04/26 10:48:07;;;;;;;7.35;3.83;;;;;;;8.38;39.17;96775.41;1764773;80;21095;-79
2021/04/26 10:50:44;;;;;;;5.58;3.25;;;;;;;8.13;39.30;96777.06;1749016;80;21192;-81
2021/04/26 10:53:10;;;;;;;7.78;4.12;;;;;;;8.18;40.25;96773.54;1763511;80;21189;-80
2021/04/26 10:55:40;;;;;;;6.53;4.70;;;;;;;8.50;40.38;96773.33;1752273;80;21260;-80
2021/04/26 10:58:21;;;;;;;7.28;4.05;;;;;;;8.62;39.08;96772.88;1753940;80;21146;-80
2021/04/26 11:00:49;;;;;;;5.20;3.17;;;;;;;8.70;39.00;96763.80;1760570;80;21756;-79
2021/04/26 11:03:29;;;;;;;8.53;3.67;;;;;;;8.99;40.15;96756.86;1769304;80;21161;-80
2021/04/26 11:05:55;;;;;;;5.37;3.27;;;;;;;9.35;39.86;96750.50;1748094;80;21154;-78
2021/04/26 11:08:36;;;;;;;7.60;3.70;;;;;;;9.36;39.41;96756.81;1708298;80;21153;-78
2021/04/26 11:13:53;;;;;;;3.80;2.70;;;;;;;9.15;39.27;96755.23;1750007;80;21162;-78
2021/04/26 11:16:23;;;;;;;5.22;3.30;;;;;;;9.32;39.96;96747.75;1737631;80;21209;-78
2021/04/26 11:19:07;;;;;;;6.60;3.15;;;;;;;9.45;39.42;96748.06;1747619;80;21114;-78
2021/04/26 11:21:49;;;;;;;5.10;3.70;;;;;;;9.56;40.66;96745.09;1739136;80;21297;-79
2021/04/26 11:24:28;;;;;;;5.28;3.70;;;;;;;9.60;38.64;96752.08;1767762;80;21138;-80
2021/04/26 11:27:16;;;;;;;5.08;2.85;;;;;;;9.47;37.79;96750.48;1750831;80;21095;-80
2021/04/26 11:29:52;;;;;;;4.17;3.05;;;;;;;9.54;36.29;96741.05;1760481;80;21459;-80
2021/04/26 11:32:18;;;;;;;7.05;3.17;;;;;;;9.59;38.47;96733.08;1765764;80;21256;-78
2021/04/26 11:34:54;;;;;;;6.17;3.83;;;;;;;9.54;36.92;96734.56;1760356;80;21198;-80
2021/04/26 11:37:36;;;;;;;3.42;2.42;;;;;;;9.43;37.56;96725.34;1756392;80;21300;-80
2021/04/26 11:40:24;;;;;;;6.25;3.58;;;;;;;9.44;37.69;96723.59;1749270;80;21165;-79
2021/04/26 11:42:50;;;;;;;7.65;2.92;;;;;;;9.41;37.94;96723.41;1759150;79;21173;-79
2021/04/26 11:45:21;;;;;;;4.70;2.40;;;;;;;9.34;37.08;96728.95;1765844;80;21150;-78
2021/04/26 11:47:50;;;;;;;3.15;2.20;;;;;;;9.32;37.69;96727.01;1750406;80;21155;-77